Time;durP1;ratioP1;P1;durP2;ratioP2;P2;SDS_P1;SDS_P2;PMS_P1;PMS_P2;Temp;Humidity;BMP_temperature;BMP_pressure;BME280_temperature;BME280_humidity;BME280_pressure;Samples;Min_cycle;Max_cycle;Signal;HPM_P1;HPM_P2
2021/04/19 00:01:24;;;;;;;24.30;14.40;;;4.90;99.90;;;;;;5089153;28;19916;-77
2021/04/19 00:03:50;;;;;;;19.75;12.90;;;4.90;99.90;;;;;;5091763;28;20404;-79
2021/04/19 00:06:16;;;;;;;20.77;13.85;;;4.90;99.90;;;;;;5085996;28;20039;-80
2021/04/19 00:08:43;;;;;;;21.60;13.20;;;5.00;99.90;;;;;;5087185;28;20052;-79
2021/04/19 00:11:09;;;;;;;22.77;13.40;;;5.00;99.90;;;;;;5078713;28;20389;-80
2021/04/19 00:13:34;;;;;;;21.52;14.00;;;5.10;99.90;;;;;;5089031;28;20036;-78
2021/04/19 00:16:00;;;;;;;23.38;15.07;;;5.10;99.90;;;;;;5091113;28;20319;-77
2021/04/19 00:18:26;;;;;;;29.00;15.27;;;5.20;99.90;;;;;;5091428;28;20039;-80
2021/04/19 00:20:52;;;;;;;23.77;15.48;;;5.30;99.90;;;;;;5088885;28;20037;-79
2021/04/19 00:23:18;;;;;;;;;;;5.40;99.90;;;;;;5087020;28;20498;-80
2021/04/19 00:25:45;;;;;;;27.48;15.63;;;5.50;99.90;;;;;;5066347;28;20010;-80
2021/04/19 00:28:10;;;;;;;23.58;14.88;;;5.50;99.90;;;;;;5093893;28;20060;-79
2021/04/19 00:30:37;;;;;;;24.20;15.65;;;5.60;99.90;;;;;;5104054;28;20040;-79
2021/04/19 00:33:03;;;;;;;22.38;15.20;;;5.50;99.90;;;;;;5093705;28;20437;-80
2021/04/19 00:35:29;;;;;;;;;;;5.60;99.90;;;;;;5094431;28;20046;-81
2021/04/19 00:37:55;;;;;;;22.98;15.77;;;5.60;99.90;;;;;;5089820;28;19920;-77
2021/04/19 00:40:22;;;;;;;20.77;14.63;;;5.50;99.90;;;;;;5079418;28;20120;-80
2021/04/19 00:42:51;;;;;;;28.17;16.63;;;5.50;99.90;;;;;;5089587;28;20048;-79
2021/04/19 00:45:18;;;;;;;25.58;17.23;;;5.50;99.90;;;;;;5091272;28;20085;-79
2021/04/19 00:47:47;;;;;;;25.73;16.80;;;5.50;99.90;;;;;;5085494;28;20071;-78
2021/04/19 00:50:20;;;;;;;26.55;18.48;;;5.50;99.90;;;;;;5090462;28;20040;-80
2021/04/19 00:52:46;;;;;;;25.25;16.38;;;5.50;99.90;;;;;;5083826;28;20489;-79
2021/04/19 00:55:14;;;;;;;23.75;14.98;;;5.50;99.90;;;;;;5089553;28;20119;-82
2021/04/19 00:57:40;;;;;;;20.42;14.52;;;5.50;99.90;;;;;;5090767;28;20040;-80
2021/04/19 01:00:18;;;;;;;20.50;14.65;;;5.30;99.90;;;;;;5083298;28;20097;-80
2021/04/19 01:02:44;;;;;;;22.58;14.75;;;5.30;99.90;;;;;;5077463;28;20087;-81
2021/04/19 01:05:15;;;;;;;21.50;14.65;;;5.20;99.90;;;;;;5089290;28;20036;-79
2021/04/19 01:07:40;;;;;;;28.70;16.63;;;5.10;99.90;;;;;;5090406;28;20069;-80
2021/04/19 01:10:07;;;;;;;26.60;15.35;;;5.20;99.90;;;;;;5084199;28;20066;-78
2021/04/19 01:12:33;;;;;;;23.90;15.35;;;5.00;99.90;;;;;;5042677;28;20044;-79
2021/04/19 01:14:59;;;;;;;22.92;14.93;;;5.00;99.90;;;;;;5083145;28;20436;-78
2021/04/19 01:17:25;;;;;;;20.27;13.80;;;4.90;99.90;;;;;;5089741;28;20051;-79
2021/04/19 01:19:51;;;;;;;24.02;15.55;;;4.80;99.90;;;;;;5088443;28;20065;-80
2021/04/19 01:22:16;;;;;;;23.13;15.52;;;4.80;99.90;;;;;;5091146;28;20040;-78
2021/04/19 01:24:42;;;;;;;24.92;16.25;;;4.70;99.90;;;;;;5088218;28;20393;-78
2021/04/19 01:27:08;;;;;;;22.23;15.32;;;4.70;99.90;;;;;;5094641;28;20071;-78
2021/04/19 01:29:34;;;;;;;26.60;16.38;;;4.70;99.90;;;;;;5092002;28;20127;-77
2021/04/19 01:32:00;;;;;;;26.85;15.98;;;4.70;99.90;;;;;;5093150;28;20043;-78
2021/04/19 01:34:26;;;;;;;;;;;4.80;99.90;;;;;;5092727;28;20378;-78
2021/04/19 01:36:52;;;;;;;24.73;15.57;;;4.70;99.90;;;;;;5094267;28;19923;-78
2021/04/19 01:39:18;;;;;;;25.27;17.35;;;4.70;99.90;;;;;;5094378;28;20032;-80
2021/04/19 01:41:44;;;;;;;32.33;20.70;;;4.80;99.90;;;;;;5090707;28;20051;-79
2021/04/19 01:44:11;;;;;;;31.10;20.50;;;5.10;99.90;;;;;;5080855;28;20059;-79
2021/04/19 01:46:38;;;;;;;39.88;21.98;;;5.00;99.90;;;;;;5093592;28;20060;-77
2021/04/19 01:49:21;;;;;;;41.15;26.73;;;5.20;99.90;;;;;;5093532;28;20044;-80
2021/04/19 01:51:48;;;;;;;35.90;23.10;;;5.40;99.90;;;;;;5087895;28;20476;-78
2021/04/19 01:54:14;;;;;;;38.78;25.42;;;5.50;99.90;;;;;;5087474;28;20051;-77
2021/04/19 01:56:40;;;;;;;;;;;5.70;99.90;;;;;;5085550;28;20044;-80
2021/04/19 01:59:07;;;;;;;40.60;24.83;;;5.80;99.90;;;;;;5088481;28;19917;-79
2021/04/19 02:01:34;;;;;;;39.85;25.50;;;5.90;99.90;;;;;;5092254;28;20048;-80
2021/04/19 02:04:33;;;;;;;38.80;25.35;;;6.00;99.90;;;;;;5086072;28;20071;-80
2021/04/19 02:07:08;;;;;;;42.85;25.50;;;6.00;99.90;;;;;;5093089;28;20059;-79
2021/04/19 02:09:55;;;;;;;39.35;25.08;;;6.10;99.90;;;;;;5090125;28;20036;-77
2021/04/19 02:12:27;;;;;;;37.92;25.35;;;6.10;99.90;;;;;;5083284;28;20392;-81
2021/04/19 02:15:27;;;;;;;38.88;25.73;;;6.10;99.90;;;;;;5092128;28;20044;-80
2021/04/19 02:18:14;;;;;;;45.22;26.55;;;6.10;99.90;;;;;;5092388;28;20048;-80
2021/04/19 02:21:04;;;;;;;49.95;27.27;;;6.20;99.90;;;;;;5088383;28;20028;-80
2021/04/19 02:23:34;;;;;;;41.22;24.73;;;6.20;99.90;;;;;;5076599;28;20040;-80
2021/04/19 02:26:17;;;;;;;38.33;24.80;;;6.30;99.90;;;;;;5087821;28;20115;-80
2021/04/19 02:29:14;;;;;;;45.42;25.02;;;6.30;99.90;;;;;;5090731;28;20040;-80
2021/04/19 02:31:48;;;;;;;40.72;25.63;;;6.40;99.90;;;;;;5089634;28;20040;-79
2021/04/19 02:34:16;;;;;;;40.10;25.70;;;6.40;99.90;;;;;;5090641;28;20048;-80
2021/04/19 02:36:45;;;;;;;36.30;24.25;;;6.40;99.90;;;;;;5091205;28;20385;-81
2021/04/19 02:39:12;;;;;;;41.70;26.20;;;6.50;99.90;;;;;;5094963;28;20047;-81
2021/04/19 02:41:40;;;;;;;36.72;24.92;;;6.50;99.90;;;;;;5092420;28;20028;-80
2021/04/19 02:44:09;;;;;;;37.95;23.15;;;6.50;99.90;;;;;;5092794;28;20503;-80
2021/04/19 02:46:36;;;;;;;39.72;23.33;;;6.50;99.90;;;;;;5088103;28;20040;-79
2021/04/19 02:49:04;;;;;;;35.92;23.48;;;6.40;99.90;;;;;;5093610;28;20036;-79
2021/04/19 02:51:32;;;;;;;38.03;24.58;;;6.40;99.90;;;;;;5100835;28;20399;-78
2021/04/19 02:54:00;;;;;;;38.83;23.75;;;6.40;99.90;;;;;;5092107;28;20048;-78
2021/04/19 02:56:29;;;;;;;38.72;23.98;;;6.40;99.90;;;;;;5090722;28;20028;-78
2021/04/19 02:58:58;;;;;;;42.67;24.50;;;6.40;99.90;;;;;;5086411;28;20071;-78
2021/04/19 03:01:36;;;;;;;40.15;23.42;;;6.40;99.90;;;;;;5092615;28;20178;-78
2021/04/19 03:04:12;;;;;;;35.85;24.00;;;6.40;99.90;;;;;;5088181;28;20040;-79
2021/04/19 03:06:42;;;;;;;39.05;24.27;;;6.30;99.90;;;;;;5088829;28;20043;-79
2021/04/19 03:09:08;;;;;;;35.33;23.88;;;6.40;99.90;;;;;;5093404;28;20040;-79
2021/04/19 03:11:43;;;;;;;34.95;24.15;;;6.40;99.90;;;;;;5091262;28;20125;-79
2021/04/19 03:14:13;;;;;;;39.47;23.55;;;6.40;99.90;;;;;;5090443;28;20338;-80
2021/04/19 03:16:45;;;;;;;38.08;23.92;;;6.30;99.90;;;;;;5087911;28;20036;-80
2021/04/19 03:19:13;;;;;;;37.33;24.45;;;6.30;99.90;;;;;;5092690;28;20036;-79
2021/04/19 03:21:40;;;;;;;39.83;24.25;;;6.30;99.90;;;;;;5091185;28;20036;-80
2021/04/19 03:24:09;;;;;;;39.45;24.58;;;6.30;99.90;;;;;;5092778;28;20032;-79
2021/04/19 03:26:37;;;;;;;40.20;23.35;;;6.20;99.90;;;;;;5089936;28;20032;-79
2021/04/19 03:29:04;;;;;;;38.70;24.88;;;6.10;99.90;;;;;;5083306;28;20040;-80
2021/04/19 03:31:43;;;;;;;;;;;6.10;99.90;;;;;;5091897;28;20085;-80
2021/04/19 03:34:13;;;;;;;39.17;24.45;;;6.10;99.90;;;;;;5088940;28;19916;-80
2021/04/19 03:36:41;;;;;;;39.80;25.20;;;6.00;99.90;;;;;;5092269;28;20078;-79
2021/04/19 03:39:08;;;;;;;41.08;26.77;;;5.90;99.90;;;;;;5076633;28;20065;-79
2021/04/19 03:41:39;;;;;;;41.00;24.80;;;5.80;99.90;;;;;;5082707;28;20040;-79
2021/04/19 03:44:08;;;;;;;38.45;24.92;;;5.80;99.90;;;;;;5089202;28;20442;-80
2021/04/19 03:46:38;;;;;;;39.03;26.00;;;5.70;99.90;;;;;;5074479;28;20049;-79
2021/04/19 03:49:11;;;;;;;45.83;27.70;;;5.60;99.90;;;;;;5088441;28;20087;-81
2021/04/19 03:51:38;;;;;;;42.10;26.42;;;5.60;99.90;;;;;;5089190;28;20057;-81
2021/04/19 03:54:06;;;;;;;38.53;25.33;;;6.20;99.90;;;;;;5087730;28;20046;-80
2021/04/19 03:56:34;;;;;;;40.65;25.90;;;5.50;99.90;;;;;;5104687;28;20040;-80
2021/04/19 03:59:04;;;;;;;41.20;26.63;;;5.50;99.90;;;;;;5088632;28;20036;-83
2021/04/19 04:01:32;;;;;;;41.92;26.40;;;5.40;99.90;;;;;;5090704;28;20062;-81
2021/04/19 04:03:58;;;;;;;49.05;28.33;;;5.40;99.90;;;;;;5090954;28;20051;-81
2021/04/19 04:06:26;;;;;;;47.60;28.35;;;5.40;99.90;;;;;;5089348;28;20040;-81
2021/04/19 04:08:53;;;;;;;48.38;29.08;;;5.50;99.90;;;;;;5091272;28;20423;-82
2021/04/19 04:11:20;;;;;;;44.92;27.45;;;5.60;99.90;;;;;;5086890;28;20032;-80
2021/04/19 04:13:46;;;;;;;42.05;25.95;;;5.60;99.90;;;;;;5085655;28;20036;-80
2021/04/19 04:16:12;;;;;;;42.20;27.38;;;5.70;99.90;;;;;;5068528;28;20115;-80
2021/04/19 04:18:38;;;;;;;44.20;26.05;;;5.80;99.90;;;;;;5090199;28;20039;-77
2021/04/19 04:21:04;;;;;;;40.95;23.85;;;5.80;99.90;;;;;;5074180;28;20127;-79
2021/04/19 04:23:30;;;;;;;39.00;24.90;;;5.90;99.90;;;;;;5083498;28;20039;-78
2021/04/19 04:25:57;;;;;;;37.28;24.83;;;5.90;99.90;;;;;;5090973;28;20036;-78
2021/04/19 04:28:23;;;;;;;;;;;6.00;99.90;;;;;;5090067;28;20390;-79
2021/04/19 04:30:48;;;;;;;;;;;6.00;99.90;;;;;;5083372;28;19916;-78
2021/04/19 04:33:14;;;;;;;;;;;5.90;99.90;;;;;;5079835;28;19922;-79
2021/04/19 04:35:40;;;;;;;;;;;5.90;99.90;;;;;;5086226;28;19923;-79
2021/04/19 04:38:06;;;;;;;;;;;5.90;99.90;;;;;;5089633;28;19923;-79
2021/04/19 04:40:32;;;;;;;;;;;5.90;99.90;;;;;;5090682;28;19924;-82
2021/04/19 04:43:01;;;;;;;;;;;5.90;99.90;;;;;;5087122;28;20273;-80
2021/04/19 04:45:27;;;;;;;;;;;5.90;99.90;;;;;;5086302;28;19916;-80
2021/04/19 04:48:07;;;;;;;;;;;5.90;99.90;;;;;;5083742;28;19947;-82
2021/04/19 04:50:36;;;;;;;;;;;5.80;99.90;;;;;;5086119;28;19973;-80
2021/04/19 04:53:02;;;;;;;;;;;5.80;99.90;;;;;;5088723;28;20019;-81
2021/04/19 04:55:28;;;;;;;;;;;5.70;99.90;;;;;;5089924;28;20015;-79
2021/04/19 04:57:54;;;;;;;;;;;5.70;99.90;;;;;;5085415;28;20377;-80
2021/04/19 05:00:21;;;;;;;;;;;5.70;99.90;;;;;;5076557;28;19916;-79
2021/04/19 05:02:48;;;;;;;;;;;5.70;99.90;;;;;;5087348;28;19923;-79
2021/04/19 05:05:16;;;;;;;;;;;5.60;99.90;;;;;;5088930;28;19920;-79
2021/04/19 05:07:42;;;;;;;;;;;5.60;99.90;;;;;;5090200;28;20434;-80
2021/04/19 05:10:08;;;;;;;;;;;5.60;99.90;;;;;;5085244;28;19924;-79
2021/04/19 05:12:34;;;;;;;;;;;5.70;99.90;;;;;;5085460;28;19938;-80
2021/04/19 05:15:01;;;;;;;;;;;5.70;99.90;;;;;;5087890;28;19995;-80
2021/04/19 05:17:27;;;;;;;;;;;5.60;99.90;;;;;;5080943;28;19916;-79
2021/04/19 05:19:53;;;;;;;;;;;5.60;99.90;;;;;;5086521;28;19979;-79
2021/04/19 05:22:19;;;;;;;;;;;5.60;99.90;;;;;;5084001;28;19941;-79
2021/04/19 05:24:45;;;;;;;;;;;5.60;99.90;;;;;;5076740;28;19920;-79
2021/04/19 05:27:11;;;;;;;;;;;5.50;99.90;;;;;;5081071;28;20391;-78
2021/04/19 05:29:37;;;;;;;;;;;5.50;99.90;;;;;;5077996;28;19928;-78
2021/04/19 05:32:03;;;;;;;;;;;5.70;99.90;;;;;;5079816;28;19919;-79
2021/04/19 05:34:29;;;;;;;;;;;5.50;99.90;;;;;;5080562;28;19924;-79
2021/04/19 05:36:56;;;;;;;;;;;5.60;99.90;;;;;;5085116;28;19920;-80
2021/04/19 05:39:22;;;;;;;;;;;5.70;99.90;;;;;;5076779;28;20010;-81
2021/04/19 05:41:47;;;;;;;;;;;5.80;99.90;;;;;;5083248;28;20039;-79
2021/04/19 05:44:13;;;;;;;;;;;6.00;99.90;;;;;;5082994;28;19923;-80
2021/04/19 05:46:39;;;;;;;;;;;6.20;99.90;;;;;;5085504;28;20011;-82
2021/04/19 05:49:05;;;;;;;;;;;6.40;99.90;;;;;;5088037;28;19923;-82
2021/04/19 05:51:35;;;;;;;;;;;6.60;99.90;;;;;;5077573;28;20398;-81
2021/04/19 05:54:01;;;;;;;;;;;6.90;99.90;;;;;;5084568;28;19920;-81
2021/04/19 05:56:37;;;;;;;;;;;7.10;99.90;;;;;;5080228;28;20011;-82
2021/04/19 05:59:08;;;;;;;;;;;7.30;99.90;;;;;;5085420;28;19927;-86
2021/04/19 06:01:37;;;;;;;;;;;7.50;99.90;;;;;;5084890;28;20011;-83
2021/04/19 06:04:12;;;;;;;;;;;7.60;99.90;;;;;;5086491;28;20419;-82
2021/04/19 06:06:51;;;;;;;;;;;7.70;99.90;;;;;;5081921;28;19984;-82
2021/04/19 06:09:20;;;;;;;;;;;7.80;99.90;;;;;;5075578;28;19983;-82
2021/04/19 06:11:45;;;;;;;;;;;7.90;99.90;;;;;;5078581;28;19965;-80
2021/04/19 06:14:12;;;;;;;;;;;7.90;99.90;;;;;;5085987;28;19916;-79
2021/04/19 06:16:38;;;;;;;;;;;7.90;99.90;;;;;;5088597;28;19920;-77
2021/04/19 06:19:06;;;;;;;;;;;8.00;99.90;;;;;;5085417;28;19923;-76
2021/04/19 06:21:32;;;;;;;;;;;8.00;99.90;;;;;;5089891;28;20296;-79
2021/04/19 06:24:00;;;;;;;;;;;8.00;99.90;;;;;;5090868;28;19922;-78
2021/04/19 06:26:26;;;;;;;;;;;8.00;99.90;;;;;;5082438;28;19926;-80
2021/04/19 06:28:51;;;;;;;;;;;8.10;99.90;;;;;;5088926;28;19920;-78
2021/04/19 06:31:18;;;;;;;;;;;8.30;99.90;;;;;;5075626;28;19924;-77
2021/04/19 06:33:55;;;;;;;;;;;8.40;99.90;;;;;;5086460;28;19922;-77
2021/04/19 06:36:20;;;;;;;;;;;8.60;99.90;;;;;;5084143;28;19920;-77
2021/04/19 06:38:46;;;;;;;;;;;8.80;99.90;;;;;;5060420;28;20264;-82
2021/04/19 06:41:12;;;;;;;;;;;9.00;99.90;;;;;;5084122;28;19985;-79
2021/04/19 06:43:37;;;;;;;;;;;9.10;99.90;;;;;;5081589;28;19920;-75
2021/04/19 06:46:06;;;;;;;;;;;9.30;99.90;;;;;;5088916;28;19927;-77
2021/04/19 06:48:32;;;;;;;;;;;9.40;99.90;;;;;;5076127;28;19924;-78
2021/04/19 06:50:58;;;;;;;;;;;9.50;99.90;;;;;;5088262;28;19919;-76
2021/04/19 06:53:24;;;;;;;;;;;9.60;99.90;;;;;;5084568;28;19920;-75
2021/04/19 06:55:50;;;;;;;;;;;9.80;99.90;;;;;;5082071;28;19928;-78
2021/04/19 06:58:16;;;;;;;;;;;10.00;99.90;;;;;;5079320;28;19930;-77
2021/04/19 07:00:43;;;;;;;;;;;10.10;99.90;;;;;;5087003;28;20010;-76
2021/04/19 07:03:09;;;;;;;;;;;10.20;99.90;;;;;;5084937;28;19916;-78
2021/04/19 07:05:35;;;;;;;;;;;10.30;99.90;;;;;;5071363;28;19931;-74
2021/04/19 07:08:13;;;;;;;;;;;10.30;99.90;;;;;;5078814;28;20071;-74
2021/04/19 07:10:41;;;;;;;;;;;10.30;99.90;;;;;;5085452;28;19927;-78
2021/04/19 07:13:08;;;;;;;;;;;10.30;99.90;;;;;;5076848;28;19923;-76
2021/04/19 07:15:36;;;;;;;;;;;10.30;99.90;;;;;;5089931;28;19974;-78
2021/04/19 07:18:03;;;;;;;;;;;10.10;99.90;;;;;;5088879;28;19922;-78
2021/04/19 07:20:29;;;;;;;;;;;10.10;99.90;;;;;;5087614;28;20010;-76
2021/04/19 07:22:54;;;;;;;;;;;10.10;99.90;;;;;;5072504;28;20023;-74
2021/04/19 07:25:20;;;;;;;;;;;10.10;99.90;;;;;;5080590;28;20361;-79
2021/04/19 07:27:46;;;;;;;;;;;10.20;99.90;;;;;;5087749;28;19920;-77
2021/04/19 07:30:12;;;;;;;;;;;10.30;99.90;;;;;;5075664;28;20129;-76
2021/04/19 07:32:39;;;;;;;;;;;10.30;99.90;;;;;;5083389;28;20320;-78
2021/04/19 07:35:06;;;;;;;;;;;10.40;99.90;;;;;;5102983;28;19985;-80
2021/04/19 07:37:32;;;;;;;;;;;10.50;99.90;;;;;;5082905;28;19920;-75
2021/04/19 07:39:58;;;;;;;;;;;10.50;99.90;;;;;;5080034;28;19920;-74
2021/04/19 07:42:24;;;;;;;;;;;10.50;99.90;;;;;;5069353;28;19924;-78
2021/04/19 07:44:50;;;;;;;;;;;10.60;99.90;;;;;;5084196;28;20010;-74
2021/04/19 07:47:24;;;;;;;;;;;10.60;99.90;;;;;;5085952;28;20453;-77
2021/04/19 07:49:59;;;;;;;;;;;10.70;99.90;;;;;;5072333;28;19934;-78
2021/04/19 07:52:26;;;;;;;;;;;10.80;99.90;;;;;;5063457;28;19931;-76
2021/04/19 07:55:12;;;;;;;;;;;10.90;99.90;;;;;;5063965;28;19925;-74
2021/04/19 07:57:37;;;;;;;;;;;11.00;99.90;;;;;;5077657;28;20324;-79
2021/04/19 08:00:06;;;;;;;;;;;11.00;99.90;;;;;;5086459;28;19935;-77
2021/04/19 08:02:32;;;;;;;;;;;11.20;99.90;;;;;;5078966;28;20034;-76
2021/04/19 08:05:02;;;;;;;;;;;11.20;99.90;;;;;;5080833;28;20007;-78
2021/04/19 08:07:28;;;;;;;;;;;11.30;99.90;;;;;;5086638;28;19924;-80
2021/04/19 08:10:02;;;;;;;;;;;11.40;99.90;;;;;;5087424;28;20277;-74
2021/04/19 08:12:32;;;;;;;;;;;11.40;99.90;;;;;;5081487;28;20468;-77
2021/04/19 08:14:58;;;;;;;;;;;11.40;99.90;;;;;;5077956;28;20035;-76
2021/04/19 08:17:28;;;;;;;;;;;11.50;99.90;;;;;;5077505;28;20018;-77
2021/04/19 08:19:54;;;;;;;;;;;11.50;99.90;;;;;;5084120;28;19981;-78
2021/04/19 08:22:30;;;;;;;;;;;11.60;99.90;;;;;;5082594;28;20351;-79
2021/04/19 08:25:16;;;;;;;;;;;11.60;99.90;;;;;;5086210;28;20355;-76
2021/04/19 08:27:43;;;;;;;;;;;11.60;99.90;;;;;;5080925;28;19964;-78
2021/04/19 08:30:13;;;;;;;;;;;11.70;99.90;;;;;;5086336;28;20307;-77
2021/04/19 08:32:39;;;;;;;;;;;11.80;99.90;;;;;;5074969;28;19928;-75
2021/04/19 08:35:05;;;;;;;;;;;11.80;99.90;;;;;;5077964;28;19931;-78
2021/04/19 08:37:31;;;;;;;;;;;11.90;99.90;;;;;;5084628;28;19919;-78
2021/04/19 08:39:57;;;;;;;;;;;11.90;99.90;;;;;;5077249;28;19966;-75
2021/04/19 08:42:30;;;;;;;;;;;12.00;99.90;;;;;;5085833;28;19955;-75
2021/04/19 08:44:57;;;;;;;;;;;12.10;99.90;;;;;;5082570;28;19943;-79
2021/04/19 08:47:27;;;;;;;;;;;12.20;99.90;;;;;;5072103;28;19946;-77
2021/04/19 08:49:54;;;;;;;;;;;12.20;99.90;;;;;;5075368;28;19982;-75
2021/04/19 08:52:20;;;;;;;;;;;12.30;99.90;;;;;;5085988;28;19920;-79
2021/04/19 08:54:46;;;;;;;;;;;12.40;99.90;;;;;;5075509;28;20335;-76
2021/04/19 08:57:12;;;;;;;;;;;12.60;99.90;;;;;;5086313;28;19928;-78
2021/04/19 08:59:38;;;;;;;;;;;12.70;99.90;;;;;;5086061;28;19933;-80
2021/04/19 09:02:05;;;;;;;;;;;12.70;99.90;;;;;;5083358;28;19928;-78
2021/04/19 09:04:30;;;;;;;;;;;12.70;99.90;;;;;;5086888;28;20434;-75
2021/04/19 09:06:58;;;;;;;;;;;12.70;99.90;;;;;;5083050;28;19924;-79
2021/04/19 09:09:42;;;;;;;;;;;12.60;99.90;;;;;;5076983;28;19930;-77
2021/04/19 09:12:11;;;;;;;;;;;12.60;99.90;;;;;;5083980;28;19984;-75
2021/04/19 09:14:37;;;;;;;;;;;12.60;99.90;;;;;;5081555;28;19931;-75
2021/04/19 09:17:04;;;;;;;;;;;12.60;99.90;;;;;;5087316;28;19920;-78
2021/04/19 09:19:30;;;;;;;;;;;12.60;99.90;;;;;;5079403;28;19975;-77
2021/04/19 09:22:08;;;;;;;;;;;12.60;99.90;;;;;;5086452;28;20262;-78
2021/04/19 09:24:52;;;;;;;;;;;12.70;99.90;;;;;;5077457;28;20019;-77
2021/04/19 09:27:41;;;;;;;;;;;12.90;99.90;;;;;;5083047;28;19920;-76
2021/04/19 09:30:21;;;;;;;;;;;13.10;99.90;;;;;;5085790;28;19920;-78
2021/04/19 09:32:47;;;;;;;;;;;13.20;99.90;;;;;;5086892;28;20023;-78
2021/04/19 09:35:36;;;;;;;;;;;13.30;99.90;;;;;;5083516;28;20359;-79
2021/04/19 09:38:01;;;;;;;;;;;13.40;99.90;;;;;;5081594;28;19916;-75
2021/04/19 09:40:27;;;;;;;;;;;13.40;99.90;;;;;;5083856;28;20002;-80
2021/04/19 09:42:56;;;;;;;;;;;13.50;99.90;;;;;;5079930;28;19924;-78
2021/04/19 09:45:41;;;;;;;;;;;13.50;99.90;;;;;;5079155;28;19915;-75
2021/04/19 09:48:25;;;;;;;;;;;13.60;99.90;;;;;;5084200;28;19927;-76
2021/04/19 09:51:15;;;;;;;;;;;13.50;99.90;;;;;;5088730;28;19919;-79
2021/04/19 09:53:44;;;;;;;;;;;13.50;99.90;;;;;;5091139;28;19916;-76
2021/04/19 09:56:10;;;;;;;;;;;13.40;99.90;;;;;;5095130;27;19961;-76
2021/04/19 09:58:36;;;;;;;;;;;13.20;99.90;;;;;;5082877;28;20400;-77
2021/04/19 10:01:02;;;;;;;;;;;13.10;99.90;;;;;;5087235;28;19916;-78
2021/04/19 10:03:29;;;;;;;;;;;13.10;99.90;;;;;;5091756;28;20078;-78
2021/04/19 10:05:55;;;;;;;;;;;13.10;99.90;;;;;;5083780;28;19916;-80
2021/04/19 10:08:24;;;;;;;;;;;13.10;99.90;;;;;;5084752;28;20373;-78
2021/04/19 10:10:53;;;;;;;;;;;13.10;99.90;;;;;;5086225;28;19923;-79
2021/04/19 10:13:32;;;;;;;;;;;13.00;99.90;;;;;;5080641;28;20023;-80
2021/04/19 10:16:07;;;;;;;;;;;13.00;99.90;;;;;;5096417;28;19916;-78
2021/04/19 10:18:33;;;;;;;;;;;13.10;99.90;;;;;;5091603;28;20376;-79
2021/04/19 10:20:59;;;;;;;;;;;13.20;99.90;;;;;;5091742;28;19922;-79
2021/04/19 10:23:36;;;;;;;;;;;13.50;99.90;;;;;;5083452;28;19920;-80
2021/04/19 10:26:02;;;;;;;;;;;13.70;99.90;;;;;;5084382;28;19916;-77
2021/04/19 10:28:40;;;;;;;;;;;13.80;99.90;;;;;;5088223;28;19927;-79
2021/04/19 10:31:08;;;;;;;;;;;13.80;99.90;;;;;;5089775;28;19923;-78
2021/04/19 10:33:34;;;;;;;;;;;14.00;99.90;;;;;;5090703;28;20022;-78
2021/04/19 10:36:13;;;;;;;;;;;14.10;99.90;;;;;;5087689;28;20057;-80
2021/04/19 10:38:39;;;;;;;;;;;14.20;99.90;;;;;;5071876;28;20287;-80
2021/04/19 10:41:05;;;;;;;;;;;14.20;99.90;;;;;;5086822;28;19919;-81
2021/04/19 10:43:30;;;;;;;;;;;14.20;99.90;;;;;;5083704;28;19920;-78
2021/04/19 10:45:56;;;;;;;;;;;14.20;99.90;;;;;;5091189;28;19939;-77
2021/04/19 10:48:22;;;;;;;;;;;14.30;99.90;;;;;;5087228;28;19927;-76
2021/04/19 10:50:52;;;;;;;;;;;14.40;99.90;;;;;;5081428;28;19927;-79
2021/04/19 10:53:37;;;;;;;;;;;14.40;99.90;;;;;;5074951;28;19924;-79
2021/04/19 10:56:04;;;;;;;;;;;14.40;99.90;;;;;;5083301;28;19927;-78
2021/04/19 10:58:33;;;;;;;;;;;14.50;99.90;;;;;;5072255;28;20025;-78
2021/04/19 11:01:00;;;;;;;;;;;14.40;99.90;;;;;;5084259;28;20277;-80
2021/04/19 11:03:33;;;;;;;;;;;14.30;99.90;;;;;;5085672;28;20018;-79
2021/04/19 11:06:00;;;;;;;;;;;14.30;99.90;;;;;;5086812;28;19963;-78
2021/04/19 11:08:45;;;;;;;;;;;14.30;99.90;;;;;;5085398;28;20360;-79
2021/04/19 11:11:40;;;;;;;;;;;14.30;99.90;;;;;;5079847;28;19931;-80
2021/04/19 11:14:08;;;;;;;;;;;14.30;99.90;;;;;;5084015;28;19916;-80
2021/04/19 11:16:34;;;;;;;;;;;14.30;99.90;;;;;;5088455;28;20324;-79
2021/04/19 11:19:00;;;;;;;;;;;14.30;99.90;;;;;;5079031;28;19955;-80
2021/04/19 11:21:28;;;;;;;;;;;14.30;99.90;;;;;;5078545;28;19920;-79
2021/04/19 11:24:13;;;;;;;;;;;14.40;99.90;;;;;;5078146;28;20292;-79
2021/04/19 11:26:39;;;;;;;;;;;14.50;99.90;;;;;;5085988;28;20008;-78
2021/04/19 11:29:06;;;;;;;;;;;14.60;99.90;;;;;;5080718;28;19970;-80
2021/04/19 11:31:46;;;;;;;;;;;14.70;99.90;;;;;;5091303;28;19938;-78
2021/04/19 11:34:13;;;;;;;;;;;14.80;99.90;;;;;;5084261;28;20022;-78
2021/04/19 11:36:40;;;;;;;;;;;14.90;99.90;;;;;;5090712;28;20364;-77
2021/04/19 11:39:10;;;;;;;;;;;14.80;99.90;;;;;;5079843;28;19920;-77
2021/04/19 11:41:36;;;;;;;;;;;14.80;99.90;;;;;;5083437;28;19977;-80
2021/04/19 11:44:02;;;;;;;;;;;14.90;99.90;;;;;;5079048;28;19920;-78
2021/04/19 11:46:28;;;;;;;;;;;15.00;99.90;;;;;;5078777;28;20257;-79
2021/04/19 11:48:54;;;;;;;;;;;15.10;99.90;;;;;;5089818;28;19970;-78
2021/04/19 11:51:21;;;;;;;;;;;15.20;99.90;;;;;;5088375;28;19931;-79
2021/04/19 11:53:48;;;;;;;;;;;15.30;99.50;;;;;;5089013;28;19915;-78
2021/04/19 11:56:14;;;;;;;;;;;15.30;99.70;;;;;;5105339;28;19920;-80
2021/04/19 11:58:42;;;;;;;;;;;15.20;98.60;;;;;;5087190;28;19920;-80
2021/04/19 12:01:09;;;;;;;;;;;15.30;99.30;;;;;;5084272;28;19970;-78
2021/04/19 12:03:36;;;;;;;;;;;15.40;97.30;;;;;;5083881;28;19959;-81
2021/04/19 12:06:03;;;;;;;;;;;15.60;99.50;;;;;;5079880;28;20027;-80
2021/04/19 12:08:28;;;;;;;;;;;15.90;99.50;;;;;;5085352;28;20321;-81
2021/04/19 12:10:54;;;;;;;;;;;16.10;98.30;;;;;;5084537;28;19955;-80
2021/04/19 12:13:20;;;;;;;;;;;16.10;96.90;;;;;;5083895;28;19955;-78
2021/04/19 12:15:52;;;;;;;;;;;16.10;96.60;;;;;;5086947;28;19920;-78
2021/04/19 12:18:18;;;;;;;;;;;16.10;97.80;;;;;;5087132;28;19919;-80
2021/04/19 12:20:44;;;;;;;;;;;16.10;98.00;;;;;;5087816;28;19920;-78
2021/04/19 12:23:09;;;;;;;;;;;16.10;96.30;;;;;;5083349;28;19973;-78
2021/04/19 12:25:35;;;;;;;;;;;16.20;97.50;;;;;;5076522;28;19927;-79
2021/04/19 12:28:01;;;;;;;;;;;16.30;97.10;;;;;;5084383;28;20411;-79
2021/04/19 12:30:28;;;;;;;;;;;16.50;96.90;;;;;;5087066;28;19924;-79
2021/04/19 12:32:54;;;;;;;;;;;16.60;94.60;;;;;;5070197;28;19928;-80
2021/04/19 12:35:20;;;;;;;;;;;16.60;95.00;;;;;;5088655;28;19920;-78
2021/04/19 12:37:47;;;;;;;;;;;16.60;94.20;;;;;;5087675;28;19926;-78
2021/04/19 12:40:13;;;;;;;;;;;16.70;95.60;;;;;;5088617;28;19920;-79
2021/04/19 12:42:39;;;;;;;;;;;16.80;94.60;;;;;;5087669;28;19926;-80
2021/04/19 12:45:05;;;;;;;;;;;16.90;95.60;;;;;;5088292;28;19920;-78
2021/04/19 12:47:34;;;;;;;;;;;17.10;96.20;;;;;;5082358;28;20387;-78
2021/04/19 12:50:00;;;;;;;;;;;17.30;95.60;;;;;;5068746;28;19934;-80
2021/04/19 12:52:25;;;;;;;;;;;17.40;93.50;;;;;;5082930;28;19920;-80
2021/04/19 12:54:51;;;;;;;;;;;17.60;95.40;;;;;;5087956;28;19927;-78
2021/04/19 12:57:17;;;;;;;;;;;17.90;95.00;;;;;;5086098;28;19985;-81
2021/04/19 12:59:43;;;;;;;;;;;18.00;93.80;;;;;;5080017;28;20200;-79
2021/04/19 13:02:09;;;;;;;;;;;18.20;94.90;;;;;;5085928;28;19986;-79
2021/04/19 13:04:34;;;;;;;;;;;18.10;91.10;;;;;;5080045;28;19935;-79
2021/04/19 13:07:00;;;;;;;;;;;18.10;91.70;;;;;;5084279;28;19926;-79
2021/04/19 13:09:27;;;;;;;;;;;18.10;93.30;;;;;;5088169;28;19920;-81
2021/04/19 13:11:53;;;;;;;;;;;18.00;91.50;;;;;;5081128;28;19982;-79
2021/04/19 13:14:19;;;;;;;;;;;18.10;91.80;;;;;;5088116;28;20365;-78
2021/04/19 13:16:45;;;;;;;;;;;18.10;78.40;;;;;;5069833;28;19919;-79
2021/04/19 13:19:10;;;;;;;;;;;17.90;80.60;;;;;;5087251;28;19942;-78
2021/04/19 13:21:36;;;;;;;;;;;17.70;88.90;;;;;;5088615;28;19916;-78
2021/04/19 13:24:03;;;;;;;;;;;17.90;84.30;;;;;;5071109;28;19920;-78
2021/04/19 13:26:29;;;;;;;;;;;18.40;91.20;;;;;;5104743;28;19920;-77
2021/04/19 13:28:55;;;;;;;;;;;19.10;84.20;;;;;;5078364;28;19924;-80
2021/04/19 13:31:20;;;;;;;;;;;19.70;92.90;;;;;;5064127;28;19966;-78
2021/04/19 13:33:46;;;;;;;;;;;20.00;71.90;;;;;;5089287;28;19923;-80
2021/04/19 13:36:13;;;;;;;;;;;20.30;81.60;;;;;;5087564;28;20071;-79
2021/04/19 13:38:39;;;;;;;;;;;20.80;74.70;;;;;;5090689;28;19920;-79
2021/04/19 13:41:09;;;;;;;;;;;20.90;87.30;;;;;;5060605;28;20356;-79
2021/04/19 13:43:38;;;;;;;;;;;20.40;75.20;;;;;;5080077;28;19924;-81
2021/04/19 13:46:04;;;;;;;;;;;20.40;82.10;;;;;;5086631;28;19919;-79
2021/04/19 13:48:30;;;;;;;;;;;20.60;82.80;;;;;;5083595;28;20338;-79
2021/04/19 13:50:55;;;;;;;;;;;20.80;83.30;;;;;;5077365;28;19920;-80
2021/04/19 13:53:21;;;;;;;;;;;20.80;83.40;;;;;;5086104;28;19955;-79
2021/04/19 13:55:47;;;;;;;;;;;20.70;83.20;;;;;;5089418;28;19920;-80